sensor_id;sensor_type;location;lat;lon;timestamp;P1;durP1;ratioP1;P2;durP2;ratioP2
77625;SDS011;66794;43.764;10.436;2023-08-31T00:00:26;16.15;;;9.30;;
77625;SDS011;66794;43.764;10.436;2023-08-31T00:03:12;19.92;;;10.55;;
77625;SDS011;66794;43.764;10.436;2023-08-31T00:06:01;21.38;;;9.65;;
77625;SDS011;66794;43.764;10.436;2023-08-31T00:08:47;25.38;;;10.43;;
77625;SDS011;66794;43.764;10.436;2023-08-31T00:11:33;22.05;;;8.88;;
77625;SDS011;66794;43.764;10.436;2023-08-31T00:14:19;19.42;;;8.40;;
77625;SDS011;66794;43.764;10.436;2023-08-31T00:17:04;15.85;;;8.07;;
77625;SDS011;66794;43.764;10.436;2023-08-31T00:19:50;16.23;;;8.68;;
77625;SDS011;66794;43.764;10.436;2023-08-31T00:22:36;18.67;;;9.85;;
77625;SDS011;66794;43.764;10.436;2023-08-31T00:25:22;16.23;;;7.30;;
77625;SDS011;66794;43.764;10.436;2023-08-31T00:28:07;15.48;;;8.43;;
77625;SDS011;66794;43.764;10.436;2023-08-31T00:30:54;16.17;;;7.05;;
77625;SDS011;66794;43.764;10.436;2023-08-31T00:33:40;14.90;;;8.52;;
77625;SDS011;66794;43.764;10.436;2023-08-31T00:36:26;18.73;;;8.55;;
77625;SDS011;66794;43.764;10.436;2023-08-31T00:39:13;19.27;;;7.47;;
77625;SDS011;66794;43.764;10.436;2023-08-31T00:41:59;16.95;;;7.63;;
77625;SDS011;66794;43.764;10.436;2023-08-31T00:44:45;18.88;;;7.75;;
77625;SDS011;66794;43.764;10.436;2023-08-31T00:47:32;14.50;;;7.28;;
77625;SDS011;66794;43.764;10.436;2023-08-31T00:50:18;19.20;;;8.02;;
77625;SDS011;66794;43.764;10.436;2023-08-31T00:53:04;13.90;;;7.13;;
77625;SDS011;66794;43.764;10.436;2023-08-31T00:55:50;20.67;;;8.13;;
77625;SDS011;66794;43.764;10.436;2023-08-31T00:58:36;16.15;;;8.00;;
77625;SDS011;66794;43.764;10.436;2023-08-31T01:07:34;16.75;;;8.98;;
77625;SDS011;66794;43.764;10.436;2023-08-31T01:13:32;13.43;;;8.60;;
77625;SDS011;66794;43.764;10.436;2023-08-31T01:16:20;14.75;;;8.02;;
77625;SDS011;66794;43.764;10.436;2023-08-31T01:19:17;14.52;;;7.90;;
77625;SDS011;66794;43.764;10.436;2023-08-31T01:22:16;16.95;;;7.60;;
77625;SDS011;66794;43.764;10.436;2023-08-31T01:25:10;15.40;;;7.80;;
77625;SDS011;66794;43.764;10.436;2023-08-31T01:27:56;18.77;;;8.10;;
77625;SDS011;66794;43.764;10.436;2023-08-31T01:30:44;16.98;;;8.70;;
77625;SDS011;66794;43.764;10.436;2023-08-31T01:33:30;18.30;;;9.00;;
77625;SDS011;66794;43.764;10.436;2023-08-31T01:36:20;15.95;;;9.13;;
77625;SDS011;66794;43.764;10.436;2023-08-31T01:39:22;20.85;;;8.95;;
77625;SDS011;66794;43.764;10.436;2023-08-31T01:42:16;14.85;;;8.32;;
77625;SDS011;66794;43.764;10.436;2023-08-31T01:45:02;15.43;;;7.75;;
77625;SDS011;66794;43.764;10.436;2023-08-31T01:47:49;15.77;;;7.57;;
77625;SDS011;66794;43.764;10.436;2023-08-31T01:50:35;13.38;;;7.40;;
77625;SDS011;66794;43.764;10.436;2023-08-31T01:53:21;15.48;;;6.88;;
77625;SDS011;66794;43.764;10.436;2023-08-31T01:56:08;15.60;;;7.03;;
77625;SDS011;66794;43.764;10.436;2023-08-31T01:58:53;12.48;;;6.30;;
77625;SDS011;66794;43.764;10.436;2023-08-31T02:01:39;13.57;;;6.93;;
77625;SDS011;66794;43.764;10.436;2023-08-31T02:04:25;19.27;;;6.47;;
77625;SDS011;66794;43.764;10.436;2023-08-31T02:07:10;12.15;;;5.20;;
77625;SDS011;66794;43.764;10.436;2023-08-31T02:09:56;16.42;;;5.38;;
77625;SDS011;66794;43.764;10.436;2023-08-31T02:12:42;15.55;;;5.60;;
77625;SDS011;66794;43.764;10.436;2023-08-31T02:15:28;17.98;;;5.80;;
77625;SDS011;66794;43.764;10.436;2023-08-31T02:18:13;14.75;;;5.55;;
77625;SDS011;66794;43.764;10.436;2023-08-31T02:20:59;14.90;;;5.40;;
77625;SDS011;66794;43.764;10.436;2023-08-31T02:23:45;15.05;;;5.22;;
77625;SDS011;66794;43.764;10.436;2023-08-31T02:26:30;13.00;;;5.30;;
77625;SDS011;66794;43.764;10.436;2023-08-31T02:29:16;17.85;;;5.63;;
77625;SDS011;66794;43.764;10.436;2023-08-31T02:32:05;14.73;;;5.20;;
77625;SDS011;66794;43.764;10.436;2023-08-31T02:34:51;13.48;;;5.20;;
77625;SDS011;66794;43.764;10.436;2023-08-31T02:37:37;11.65;;;5.03;;
77625;SDS011;66794;43.764;10.436;2023-08-31T02:40:22;12.30;;;5.03;;
77625;SDS011;66794;43.764;10.436;2023-08-31T02:43:08;11.10;;;5.00;;
77625;SDS011;66794;43.764;10.436;2023-08-31T02:46:00;12.82;;;5.03;;
77625;SDS011;66794;43.764;10.436;2023-08-31T02:48:47;13.38;;;4.82;;
77625;SDS011;66794;43.764;10.436;2023-08-31T02:51:33;17.48;;;5.32;;
77625;SDS011;66794;43.764;10.436;2023-08-31T02:54:19;18.75;;;5.75;;
77625;SDS011;66794;43.764;10.436;2023-08-31T02:57:05;11.07;;;4.82;;
77625;SDS011;66794;43.764;10.436;2023-08-31T02:59:50;18.85;;;5.22;;
77625;SDS011;66794;43.764;10.436;2023-08-31T03:02:36;13.23;;;5.00;;
77625;SDS011;66794;43.764;10.436;2023-08-31T03:05:22;9.98;;;5.03;;
77625;SDS011;66794;43.764;10.436;2023-08-31T03:08:08;12.60;;;4.95;;
77625;SDS011;66794;43.764;10.436;2023-08-31T03:10:54;8.80;;;4.60;;
77625;SDS011;66794;43.764;10.436;2023-08-31T03:13:42;19.30;;;4.93;;
77625;SDS011;66794;43.764;10.436;2023-08-31T03:16:27;14.40;;;5.57;;
77625;SDS011;66794;43.764;10.436;2023-08-31T03:19:13;14.77;;;5.10;;
77625;SDS011;66794;43.764;10.436;2023-08-31T03:21:59;14.70;;;5.10;;
77625;SDS011;66794;43.764;10.436;2023-08-31T03:24:44;16.65;;;4.57;;
77625;SDS011;66794;43.764;10.436;2023-08-31T03:27:30;13.40;;;5.07;;
77625;SDS011;66794;43.764;10.436;2023-08-31T03:30:16;10.68;;;4.18;;
77625;SDS011;66794;43.764;10.436;2023-08-31T03:33:02;13.98;;;4.82;;
77625;SDS011;66794;43.764;10.436;2023-08-31T03:35:48;15.20;;;5.18;;
77625;SDS011;66794;43.764;10.436;2023-08-31T03:38:33;9.85;;;4.35;;
77625;SDS011;66794;43.764;10.436;2023-08-31T03:41:23;11.32;;;4.45;;
77625;SDS011;66794;43.764;10.436;2023-08-31T03:44:09;14.27;;;4.38;;
77625;SDS011;66794;43.764;10.436;2023-08-31T03:46:55;13.45;;;4.15;;
77625;SDS011;66794;43.764;10.436;2023-08-31T03:49:40;16.73;;;4.30;;
77625;SDS011;66794;43.764;10.436;2023-08-31T03:52:26;12.27;;;4.38;;
77625;SDS011;66794;43.764;10.436;2023-08-31T03:55:12;11.07;;;4.55;;
77625;SDS011;66794;43.764;10.436;2023-08-31T03:57:58;10.82;;;4.78;;
77625;SDS011;66794;43.764;10.436;2023-08-31T04:00:43;13.00;;;4.50;;
77625;SDS011;66794;43.764;10.436;2023-08-31T04:03:29;12.98;;;4.47;;
77625;SDS011;66794;43.764;10.436;2023-08-31T04:06:15;13.88;;;4.55;;
77625;SDS011;66794;43.764;10.436;2023-08-31T04:09:01;7.88;;;4.13;;
77625;SDS011;66794;43.764;10.436;2023-08-31T04:11:47;10.98;;;4.18;;
77625;SDS011;66794;43.764;10.436;2023-08-31T04:14:32;12.65;;;4.63;;
77625;SDS011;66794;43.764;10.436;2023-08-31T04:17:18;12.48;;;4.93;;
77625;SDS011;66794;43.764;10.436;2023-08-31T04:20:04;11.00;;;4.47;;
77625;SDS011;66794;43.764;10.436;2023-08-31T04:22:51;14.02;;;4.53;;
77625;SDS011;66794;43.764;10.436;2023-08-31T04:25:36;12.90;;;4.40;;
77625;SDS011;66794;43.764;10.436;2023-08-31T04:28:23;13.25;;;4.22;;
77625;SDS011;66794;43.764;10.436;2023-08-31T04:31:09;11.10;;;4.80;;
77625;SDS011;66794;43.764;10.436;2023-08-31T04:33:55;10.65;;;4.13;;
77625;SDS011;66794;43.764;10.436;2023-08-31T04:36:41;15.82;;;4.30;;
77625;SDS011;66794;43.764;10.436;2023-08-31T04:39:27;10.10;;;4.47;;
77625;SDS011;66794;43.764;10.436;2023-08-31T04:42:12;13.73;;;4.57;;
77625;SDS011;66794;43.764;10.436;2023-08-31T04:44:58;10.25;;;4.60;;
77625;SDS011;66794;43.764;10.436;2023-08-31T04:47:44;16.98;;;4.60;;
77625;SDS011;66794;43.764;10.436;2023-08-31T04:50:30;7.40;;;4.40;;
77625;SDS011;66794;43.764;10.436;2023-08-31T04:53:16;14.38;;;4.50;;
77625;SDS011;66794;43.764;10.436;2023-08-31T04:56:01;13.50;;;4.60;;
77625;SDS011;66794;43.764;10.436;2023-08-31T04:58:47;9.18;;;4.45;;
77625;SDS011;66794;43.764;10.436;2023-08-31T05:01:33;11.50;;;4.70;;
77625;SDS011;66794;43.764;10.436;2023-08-31T05:04:19;12.90;;;4.10;;
77625;SDS011;66794;43.764;10.436;2023-08-31T05:07:04;10.43;;;3.88;;
77625;SDS011;66794;43.764;10.436;2023-08-31T05:09:50;10.07;;;3.75;;
77625;SDS011;66794;43.764;10.436;2023-08-31T05:12:36;8.55;;;3.42;;
77625;SDS011;66794;43.764;10.436;2023-08-31T05:15:22;13.70;;;3.95;;
77625;SDS011;66794;43.764;10.436;2023-08-31T05:18:08;10.23;;;3.42;;
77625;SDS011;66794;43.764;10.436;2023-08-31T05:20:54;12.70;;;3.97;;
77625;SDS011;66794;43.764;10.436;2023-08-31T05:23:40;8.82;;;3.45;;
77625;SDS011;66794;43.764;10.436;2023-08-31T05:26:25;11.48;;;4.03;;
77625;SDS011;66794;43.764;10.436;2023-08-31T05:29:11;7.85;;;2.67;;
77625;SDS011;66794;43.764;10.436;2023-08-31T05:31:57;10.20;;;2.40;;
77625;SDS011;66794;43.764;10.436;2023-08-31T05:34:42;6.00;;;2.42;;
77625;SDS011;66794;43.764;10.436;2023-08-31T05:37:31;10.32;;;2.60;;
77625;SDS011;66794;43.764;10.436;2023-08-31T05:40:18;7.18;;;2.30;;
77625;SDS011;66794;43.764;10.436;2023-08-31T05:43:04;9.95;;;2.72;;
77625;SDS011;66794;43.764;10.436;2023-08-31T05:45:50;5.90;;;2.50;;
77625;SDS011;66794;43.764;10.436;2023-08-31T05:48:36;12.55;;;3.20;;
77625;SDS011;66794;43.764;10.436;2023-08-31T05:51:22;4.15;;;2.15;;
77625;SDS011;66794;43.764;10.436;2023-08-31T05:54:08;9.60;;;2.35;;
77625;SDS011;66794;43.764;10.436;2023-08-31T05:56:58;7.05;;;2.75;;
77625;SDS011;66794;43.764;10.436;2023-08-31T05:59:44;5.22;;;2.45;;
77625;SDS011;66794;43.764;10.436;2023-08-31T06:02:29;7.47;;;2.30;;
77625;SDS011;66794;43.764;10.436;2023-08-31T06:05:15;10.30;;;2.67;;
77625;SDS011;66794;43.764;10.436;2023-08-31T06:08:02;6.68;;;2.60;;
77625;SDS011;66794;43.764;10.436;2023-08-31T06:10:48;7.35;;;2.25;;
77625;SDS011;66794;43.764;10.436;2023-08-31T06:13:34;7.60;;;2.20;;
77625;SDS011;66794;43.764;10.436;2023-08-31T06:16:19;7.40;;;2.50;;
77625;SDS011;66794;43.764;10.436;2023-08-31T06:19:05;7.68;;;2.28;;
77625;SDS011;66794;43.764;10.436;2023-08-31T06:21:51;6.63;;;2.40;;
77625;SDS011;66794;43.764;10.436;2023-08-31T06:24:37;7.72;;;2.40;;
77625;SDS011;66794;43.764;10.436;2023-08-31T06:27:23;7.95;;;2.55;;
77625;SDS011;66794;43.764;10.436;2023-08-31T06:30:09;6.50;;;2.65;;
77625;SDS011;66794;43.764;10.436;2023-08-31T06:32:57;10.13;;;2.28;;
77625;SDS011;66794;43.764;10.436;2023-08-31T06:35:45;10.60;;;2.50;;
77625;SDS011;66794;43.764;10.436;2023-08-31T06:38:33;7.15;;;2.47;;
77625;SDS011;66794;43.764;10.436;2023-08-31T06:41:20;8.73;;;2.75;;
77625;SDS011;66794;43.764;10.436;2023-08-31T06:44:06;7.85;;;2.80;;
77625;SDS011;66794;43.764;10.436;2023-08-31T06:46:52;9.52;;;2.70;;
77625;SDS011;66794;43.764;10.436;2023-08-31T06:49:38;10.07;;;2.70;;
77625;SDS011;66794;43.764;10.436;2023-08-31T06:52:24;5.47;;;2.90;;
77625;SDS011;66794;43.764;10.436;2023-08-31T06:55:10;12.05;;;3.30;;
77625;SDS011;66794;43.764;10.436;2023-08-31T06:57:56;8.43;;;2.80;;
77625;SDS011;66794;43.764;10.436;2023-08-31T07:00:42;7.32;;;3.20;;
77625;SDS011;66794;43.764;10.436;2023-08-31T07:03:27;8.18;;;3.50;;
77625;SDS011;66794;43.764;10.436;2023-08-31T07:06:13;16.38;;;3.20;;
77625;SDS011;66794;43.764;10.436;2023-08-31T07:08:59;8.18;;;3.00;;
77625;SDS011;66794;43.764;10.436;2023-08-31T07:11:45;7.75;;;2.80;;
77625;SDS011;66794;43.764;10.436;2023-08-31T07:14:30;6.75;;;2.72;;
77625;SDS011;66794;43.764;10.436;2023-08-31T07:17:19;8.88;;;3.15;;
77625;SDS011;66794;43.764;10.436;2023-08-31T07:20:05;9.77;;;2.53;;
77625;SDS011;66794;43.764;10.436;2023-08-31T07:22:52;6.97;;;2.40;;
77625;SDS011;66794;43.764;10.436;2023-08-31T07:25:37;8.13;;;2.83;;
77625;SDS011;66794;43.764;10.436;2023-08-31T07:28:23;7.88;;;2.60;;
77625;SDS011;66794;43.764;10.436;2023-08-31T07:31:09;11.68;;;2.95;;
77625;SDS011;66794;43.764;10.436;2023-08-31T07:33:55;12.18;;;2.90;;
77625;SDS011;66794;43.764;10.436;2023-08-31T07:36:41;6.63;;;2.50;;
77625;SDS011;66794;43.764;10.436;2023-08-31T07:39:27;8.40;;;3.50;;
77625;SDS011;66794;43.764;10.436;2023-08-31T07:42:13;24.77;;;5.10;;
77625;SDS011;66794;43.764;10.436;2023-08-31T07:44:59;9.65;;;3.78;;
77625;SDS011;66794;43.764;10.436;2023-08-31T07:47:44;10.52;;;3.50;;
77625;SDS011;66794;43.764;10.436;2023-08-31T07:50:30;7.40;;;3.08;;
77625;SDS011;66794;43.764;10.436;2023-08-31T07:53:16;14.90;;;3.50;;
77625;SDS011;66794;43.764;10.436;2023-08-31T07:56:02;8.45;;;3.17;;
77625;SDS011;66794;43.764;10.436;2023-08-31T07:58:49;7.90;;;3.10;;
77625;SDS011;66794;43.764;10.436;2023-08-31T08:01:35;10.27;;;2.92;;
77625;SDS011;66794;43.764;10.436;2023-08-31T08:04:21;8.73;;;3.40;;
77625;SDS011;66794;43.764;10.436;2023-08-31T08:07:06;12.57;;;2.92;;
77625;SDS011;66794;43.764;10.436;2023-08-31T08:09:54;11.45;;;3.22;;
77625;SDS011;66794;43.764;10.436;2023-08-31T08:12:40;10.80;;;3.20;;
77625;SDS011;66794;43.764;10.436;2023-08-31T08:15:29;10.05;;;3.05;;
77625;SDS011;66794;43.764;10.436;2023-08-31T08:18:15;9.23;;;3.17;;
77625;SDS011;66794;43.764;10.436;2023-08-31T08:21:01;12.35;;;3.08;;
77625;SDS011;66794;43.764;10.436;2023-08-31T08:23:46;10.32;;;3.05;;
77625;SDS011;66794;43.764;10.436;2023-08-31T08:26:32;11.15;;;3.25;;
77625;SDS011;66794;43.764;10.436;2023-08-31T08:29:18;11.60;;;3.55;;
77625;SDS011;66794;43.764;10.436;2023-08-31T08:32:04;13.88;;;3.53;;
77625;SDS011;66794;43.764;10.436;2023-08-31T08:34:51;7.32;;;3.47;;
77625;SDS011;66794;43.764;10.436;2023-08-31T08:37:37;9.40;;;3.83;;
77625;SDS011;66794;43.764;10.436;2023-08-31T08:40:22;6.28;;;3.03;;
77625;SDS011;66794;43.764;10.436;2023-08-31T08:43:09;10.13;;;3.38;;
77625;SDS011;66794;43.764;10.436;2023-08-31T08:45:56;9.43;;;3.40;;
77625;SDS011;66794;43.764;10.436;2023-08-31T08:48:50;12.57;;;3.85;;
77625;SDS011;66794;43.764;10.436;2023-08-31T08:51:36;13.27;;;4.38;;
77625;SDS011;66794;43.764;10.436;2023-08-31T08:54:22;15.07;;;4.10;;
77625;SDS011;66794;43.764;10.436;2023-08-31T08:57:08;10.07;;;3.58;;
77625;SDS011;66794;43.764;10.436;2023-08-31T08:59:54;11.20;;;4.05;;
77625;SDS011;66794;43.764;10.436;2023-08-31T09:02:40;13.70;;;4.40;;
77625;SDS011;66794;43.764;10.436;2023-08-31T09:05:26;13.98;;;4.38;;
77625;SDS011;66794;43.764;10.436;2023-08-31T09:08:12;10.27;;;4.25;;
77625;SDS011;66794;43.764;10.436;2023-08-31T09:10:59;10.30;;;3.78;;
77625;SDS011;66794;43.764;10.436;2023-08-31T09:13:45;18.55;;;4.00;;
77625;SDS011;66794;43.764;10.436;2023-08-31T09:16:30;12.23;;;4.50;;
77625;SDS011;66794;43.764;10.436;2023-08-31T09:19:17;12.77;;;4.35;;
77625;SDS011;66794;43.764;10.436;2023-08-31T09:22:04;13.50;;;4.18;;
77625;SDS011;66794;43.764;10.436;2023-08-31T09:24:50;16.13;;;5.07;;
77625;SDS011;66794;43.764;10.436;2023-08-31T09:27:36;10.80;;;4.30;;
77625;SDS011;66794;43.764;10.436;2023-08-31T09:30:24;10.63;;;4.03;;
77625;SDS011;66794;43.764;10.436;2023-08-31T09:33:10;15.50;;;4.05;;
77625;SDS011;66794;43.764;10.436;2023-08-31T09:35:59;13.48;;;3.83;;
77625;SDS011;66794;43.764;10.436;2023-08-31T09:38:46;14.27;;;4.20;;
77625;SDS011;66794;43.764;10.436;2023-08-31T09:41:32;9.90;;;3.80;;
77625;SDS011;66794;43.764;10.436;2023-08-31T09:44:20;10.40;;;3.70;;
77625;SDS011;66794;43.764;10.436;2023-08-31T09:47:06;11.45;;;3.80;;
77625;SDS011;66794;43.764;10.436;2023-08-31T09:49:53;12.13;;;3.78;;
77625;SDS011;66794;43.764;10.436;2023-08-31T09:52:39;12.65;;;3.78;;
77625;SDS011;66794;43.764;10.436;2023-08-31T09:55:27;17.42;;;3.33;;
77625;SDS011;66794;43.764;10.436;2023-08-31T09:58:18;13.27;;;4.45;;
77625;SDS011;66794;43.764;10.436;2023-08-31T10:01:05;13.27;;;3.67;;
77625;SDS011;66794;43.764;10.436;2023-08-31T10:03:51;11.55;;;4.28;;
77625;SDS011;66794;43.764;10.436;2023-08-31T10:06:38;12.02;;;3.80;;
77625;SDS011;66794;43.764;10.436;2023-08-31T10:09:25;7.30;;;3.17;;
77625;SDS011;66794;43.764;10.436;2023-08-31T10:12:11;9.38;;;3.40;;
77625;SDS011;66794;43.764;10.436;2023-08-31T10:14:59;11.65;;;3.50;;
77625;SDS011;66794;43.764;10.436;2023-08-31T10:17:45;9.52;;;3.47;;
77625;SDS011;66794;43.764;10.436;2023-08-31T10:20:32;7.07;;;3.08;;
77625;SDS011;66794;43.764;10.436;2023-08-31T10:23:19;13.10;;;3.50;;
77625;SDS011;66794;43.764;10.436;2023-08-31T10:26:06;8.35;;;2.63;;
77625;SDS011;66794;43.764;10.436;2023-08-31T10:28:52;7.88;;;2.42;;
77625;SDS011;66794;43.764;10.436;2023-08-31T10:31:38;9.57;;;3.40;;
77625;SDS011;66794;43.764;10.436;2023-08-31T10:34:34;9.27;;;3.05;;
77625;SDS011;66794;43.764;10.436;2023-08-31T10:37:21;9.55;;;3.05;;
77625;SDS011;66794;43.764;10.436;2023-08-31T10:40:11;7.80;;;2.35;;
77625;SDS011;66794;43.764;10.436;2023-08-31T10:43:16;9.85;;;3.35;;
77625;SDS011;66794;43.764;10.436;2023-08-31T10:46:02;8.18;;;3.10;;
77625;SDS011;66794;43.764;10.436;2023-08-31T10:52:19;6.82;;;3.10;;
77625;SDS011;66794;43.764;10.436;2023-08-31T10:55:05;9.48;;;3.10;;
77625;SDS011;66794;43.764;10.436;2023-08-31T10:57:51;9.18;;;3.03;;
77625;SDS011;66794;43.764;10.436;2023-08-31T11:00:46;10.38;;;2.90;;
77625;SDS011;66794;43.764;10.436;2023-08-31T11:07:15;9.38;;;3.40;;
77625;SDS011;66794;43.764;10.436;2023-08-31T11:10:18;9.55;;;3.25;;
77625;SDS011;66794;43.764;10.436;2023-08-31T11:13:05;9.40;;;2.85;;
77625;SDS011;66794;43.764;10.436;2023-08-31T11:15:51;9.55;;;3.00;;
77625;SDS011;66794;43.764;10.436;2023-08-31T11:18:37;11.02;;;3.50;;
77625;SDS011;66794;43.764;10.436;2023-08-31T11:21:23;12.68;;;3.42;;
77625;SDS011;66794;43.764;10.436;2023-08-31T11:24:09;10.77;;;3.70;;
77625;SDS011;66794;43.764;10.436;2023-08-31T11:26:55;8.45;;;3.25;;
77625;SDS011;66794;43.764;10.436;2023-08-31T11:29:44;10.18;;;3.80;;
77625;SDS011;66794;43.764;10.436;2023-08-31T11:32:30;8.68;;;3.65;;
77625;SDS011;66794;43.764;10.436;2023-08-31T11:35:16;9.70;;;3.80;;
77625;SDS011;66794;43.764;10.436;2023-08-31T11:38:04;10.05;;;3.47;;
77625;SDS011;66794;43.764;10.436;2023-08-31T11:40:54;10.02;;;3.42;;
77625;SDS011;66794;43.764;10.436;2023-08-31T11:43:42;8.50;;;3.53;;
77625;SDS011;66794;43.764;10.436;2023-08-31T11:46:28;10.63;;;3.70;;
77625;SDS011;66794;43.764;10.436;2023-08-31T11:49:14;12.02;;;4.18;;
77625;SDS011;66794;43.764;10.436;2023-08-31T11:52:00;8.65;;;3.50;;
77625;SDS011;66794;43.764;10.436;2023-08-31T11:54:46;10.75;;;3.75;;
77625;SDS011;66794;43.764;10.436;2023-08-31T11:57:38;8.50;;;3.70;;
77625;SDS011;66794;43.764;10.436;2023-08-31T12:00:24;10.48;;;3.90;;
77625;SDS011;66794;43.764;10.436;2023-08-31T12:03:10;10.45;;;3.95;;
77625;SDS011;66794;43.764;10.436;2023-08-31T12:05:56;10.73;;;4.38;;
77625;SDS011;66794;43.764;10.436;2023-08-31T12:08:43;10.05;;;4.10;;
77625;SDS011;66794;43.764;10.436;2023-08-31T12:11:29;8.43;;;3.80;;
77625;SDS011;66794;43.764;10.436;2023-08-31T12:14:36;11.80;;;4.03;;
77625;SDS011;66794;43.764;10.436;2023-08-31T12:17:23;12.77;;;4.15;;
77625;SDS011;66794;43.764;10.436;2023-08-31T12:20:09;11.95;;;3.63;;
77625;SDS011;66794;43.764;10.436;2023-08-31T12:22:57;11.00;;;3.70;;
77625;SDS011;66794;43.764;10.436;2023-08-31T12:25:49;5.93;;;3.50;;
77625;SDS011;66794;43.764;10.436;2023-08-31T12:28:36;13.25;;;3.67;;
77625;SDS011;66794;43.764;10.436;2023-08-31T12:31:22;12.65;;;3.97;;
77625;SDS011;66794;43.764;10.436;2023-08-31T12:34:09;7.53;;;3.20;;
77625;SDS011;66794;43.764;10.436;2023-08-31T12:36:55;11.02;;;3.90;;
77625;SDS011;66794;43.764;10.436;2023-08-31T12:39:45;11.55;;;3.10;;
77625;SDS011;66794;43.764;10.436;2023-08-31T12:42:31;9.55;;;3.42;;
77625;SDS011;66794;43.764;10.436;2023-08-31T12:45:16;8.82;;;2.72;;
77625;SDS011;66794;43.764;10.436;2023-08-31T12:48:02;6.45;;;2.78;;
77625;SDS011;66794;43.764;10.436;2023-08-31T12:50:49;9.48;;;3.10;;
77625;SDS011;66794;43.764;10.436;2023-08-31T12:53:38;5.03;;;2.55;;
77625;SDS011;66794;43.764;10.436;2023-08-31T12:56:25;9.40;;;3.00;;
77625;SDS011;66794;43.764;10.436;2023-08-31T12:59:11;7.07;;;2.50;;
77625;SDS011;66794;43.764;10.436;2023-08-31T13:01:57;7.68;;;2.22;;
77625;SDS011;66794;43.764;10.436;2023-08-31T13:04:43;6.43;;;2.55;;
77625;SDS011;66794;43.764;10.436;2023-08-31T13:07:28;5.65;;;1.90;;
77625;SDS011;66794;43.764;10.436;2023-08-31T13:10:14;8.70;;;3.85;;
77625;SDS011;66794;43.764;10.436;2023-08-31T13:13:00;9.25;;;3.55;;
77625;SDS011;66794;43.764;10.436;2023-08-31T13:15:46;4.70;;;1.77;;
77625;SDS011;66794;43.764;10.436;2023-08-31T13:18:32;6.72;;;2.08;;
77625;SDS011;66794;43.764;10.436;2023-08-31T13:21:18;4.75;;;1.80;;
77625;SDS011;66794;43.764;10.436;2023-08-31T13:24:04;9.13;;;1.30;;
77625;SDS011;66794;43.764;10.436;2023-08-31T13:26:50;4.65;;;1.35;;
77625;SDS011;66794;43.764;10.436;2023-08-31T13:29:36;8.13;;;1.60;;
77625;SDS011;66794;43.764;10.436;2023-08-31T13:32:22;3.83;;;1.20;;
77625;SDS011;66794;43.764;10.436;2023-08-31T13:35:07;3.45;;;1.13;;
77625;SDS011;66794;43.764;10.436;2023-08-31T13:37:54;4.80;;;1.45;;
77625;SDS011;66794;43.764;10.436;2023-08-31T13:40:40;4.82;;;1.55;;
77625;SDS011;66794;43.764;10.436;2023-08-31T13:43:26;5.38;;;1.13;;
77625;SDS011;66794;43.764;10.436;2023-08-31T13:46:11;4.97;;;1.20;;
77625;SDS011;66794;43.764;10.436;2023-08-31T13:48:57;3.03;;;1.08;;
77625;SDS011;66794;43.764;10.436;2023-08-31T13:51:43;4.53;;;1.33;;
77625;SDS011;66794;43.764;10.436;2023-08-31T13:54:33;4.45;;;1.30;;
77625;SDS011;66794;43.764;10.436;2023-08-31T13:57:19;3.95;;;1.55;;
77625;SDS011;66794;43.764;10.436;2023-08-31T14:00:05;3.45;;;1.48;;
77625;SDS011;66794;43.764;10.436;2023-08-31T14:02:54;5.50;;;1.35;;
77625;SDS011;66794;43.764;10.436;2023-08-31T14:05:40;5.10;;;1.85;;
77625;SDS011;66794;43.764;10.436;2023-08-31T14:08:25;5.07;;;1.58;;
77625;SDS011;66794;43.764;10.436;2023-08-31T14:11:11;3.67;;;1.30;;
77625;SDS011;66794;43.764;10.436;2023-08-31T14:14:03;6.45;;;1.65;;
77625;SDS011;66794;43.764;10.436;2023-08-31T14:16:59;4.50;;;1.52;;
77625;SDS011;66794;43.764;10.436;2023-08-31T14:19:45;3.22;;;1.17;;
77625;SDS011;66794;43.764;10.436;2023-08-31T14:22:31;6.80;;;1.40;;
77625;SDS011;66794;43.764;10.436;2023-08-31T14:25:18;3.75;;;1.50;;
77625;SDS011;66794;43.764;10.436;2023-08-31T14:28:04;5.28;;;1.73;;
77625;SDS011;66794;43.764;10.436;2023-08-31T14:30:50;5.20;;;1.50;;
77625;SDS011;66794;43.764;10.436;2023-08-31T14:33:36;3.42;;;1.35;;
77625;SDS011;66794;43.764;10.436;2023-08-31T14:36:22;5.68;;;1.45;;
77625;SDS011;66794;43.764;10.436;2023-08-31T14:39:07;5.68;;;1.70;;
77625;SDS011;66794;43.764;10.436;2023-08-31T14:41:53;5.80;;;1.67;;
77625;SDS011;66794;43.764;10.436;2023-08-31T14:44:39;6.93;;;1.70;;
77625;SDS011;66794;43.764;10.436;2023-08-31T14:47:25;4.93;;;1.48;;
77625;SDS011;66794;43.764;10.436;2023-08-31T14:50:10;3.28;;;1.50;;
77625;SDS011;66794;43.764;10.436;2023-08-31T14:52:56;11.48;;;2.17;;
77625;SDS011;66794;43.764;10.436;2023-08-31T14:55:47;6.38;;;1.77;;
77625;SDS011;66794;43.764;10.436;2023-08-31T14:58:34;5.65;;;1.83;;
77625;SDS011;66794;43.764;10.436;2023-08-31T15:01:19;7.25;;;2.25;;
77625;SDS011;66794;43.764;10.436;2023-08-31T15:04:05;10.27;;;2.25;;
77625;SDS011;66794;43.764;10.436;2023-08-31T15:06:53;6.50;;;1.90;;
77625;SDS011;66794;43.764;10.436;2023-08-31T15:09:38;9.80;;;2.35;;
77625;SDS011;66794;43.764;10.436;2023-08-31T15:12:24;8.13;;;2.25;;
77625;SDS011;66794;43.764;10.436;2023-08-31T15:15:10;7.60;;;2.60;;
77625;SDS011;66794;43.764;10.436;2023-08-31T15:17:56;10.77;;;2.35;;
77625;SDS011;66794;43.764;10.436;2023-08-31T15:20:41;9.23;;;2.80;;
77625;SDS011;66794;43.764;10.436;2023-08-31T15:23:28;7.13;;;3.20;;
77625;SDS011;66794;43.764;10.436;2023-08-31T15:26:14;6.32;;;2.13;;
77625;SDS011;66794;43.764;10.436;2023-08-31T15:29:00;5.00;;;2.20;;
77625;SDS011;66794;43.764;10.436;2023-08-31T15:31:46;9.88;;;2.40;;
77625;SDS011;66794;43.764;10.436;2023-08-31T15:34:32;7.45;;;2.30;;
77625;SDS011;66794;43.764;10.436;2023-08-31T15:37:18;9.27;;;2.80;;
77625;SDS011;66794;43.764;10.436;2023-08-31T15:40:05;14.20;;;2.70;;
77625;SDS011;66794;43.764;10.436;2023-08-31T15:42:51;7.10;;;2.40;;
77625;SDS011;66794;43.764;10.436;2023-08-31T15:45:37;6.78;;;2.30;;
77625;SDS011;66794;43.764;10.436;2023-08-31T15:48:23;6.40;;;2.33;;
77625;SDS011;66794;43.764;10.436;2023-08-31T15:51:09;9.13;;;2.47;;
77625;SDS011;66794;43.764;10.436;2023-08-31T15:53:55;10.10;;;2.63;;
77625;SDS011;66794;43.764;10.436;2023-08-31T15:56:41;8.13;;;2.50;;
77625;SDS011;66794;43.764;10.436;2023-08-31T15:59:27;8.52;;;2.50;;
77625;SDS011;66794;43.764;10.436;2023-08-31T16:02:13;5.18;;;2.20;;
77625;SDS011;66794;43.764;10.436;2023-08-31T16:05:05;5.68;;;1.80;;
77625;SDS011;66794;43.764;10.436;2023-08-31T16:07:51;10.20;;;2.17;;
77625;SDS011;66794;43.764;10.436;2023-08-31T16:10:37;6.38;;;2.33;;
77625;SDS011;66794;43.764;10.436;2023-08-31T16:13:23;5.13;;;1.80;;
77625;SDS011;66794;43.764;10.436;2023-08-31T16:16:09;5.65;;;2.20;;
77625;SDS011;66794;43.764;10.436;2023-08-31T16:18:55;5.97;;;2.45;;
77625;SDS011;66794;43.764;10.436;2023-08-31T16:21:40;4.68;;;2.03;;
77625;SDS011;66794;43.764;10.436;2023-08-31T16:24:26;7.30;;;2.45;;
77625;SDS011;66794;43.764;10.436;2023-08-31T16:27:12;7.53;;;2.40;;
77625;SDS011;66794;43.764;10.436;2023-08-31T16:29:58;6.72;;;2.35;;
77625;SDS011;66794;43.764;10.436;2023-08-31T16:32:44;7.82;;;2.42;;
77625;SDS011;66794;43.764;10.436;2023-08-31T16:35:30;8.13;;;2.53;;
77625;SDS011;66794;43.764;10.436;2023-08-31T16:38:16;9.20;;;2.20;;